Quebeck, Tennessee
Current Conditions -  °F | °C
As of 2:15 PM on Monday 24 Nov 2014 (Local Time) from KSRB Reporting Station
Clear Clear  
Wind Chill: 63°   Ceiling: Unl
Heat Index: 63°   Visibility: 10mi
Dew Point: 39°   Wind: 10mph
Humidity: 42%   Direction: 270°W
Pressure: 29.78"   Gusts: NA
Location:  35.82°N, 85.57°W
Report Text: KSRB 242015Z AUTO 27009KT 240V300 10SM CLR 17/04 A2978 RMK
Loading
Personal Weather Stations






























Interactive Weather Map New forecast layout! Learn more

10-Day Weather Forecast

Advertisements
Track Severe Weather on mobile